createdAt,value
2017-10-25T00:00:41.348Z,12.47
2017-10-25T00:03:07.728Z,12.67
2017-10-25T00:05:33.991Z,13.37
2017-10-25T00:08:00.334Z,14.00
2017-10-25T00:10:26.643Z,13.00
2017-10-25T00:12:53.658Z,14.57
2017-10-25T00:15:19.942Z,13.30
2017-10-25T00:17:46.282Z,13.00
2017-10-25T00:20:12.613Z,13.37
2017-10-25T00:22:38.940Z,12.67
2017-10-25T00:25:05.223Z,13.07
2017-10-25T00:27:31.512Z,14.30
2017-10-25T00:29:58.550Z,12.90
2017-10-25T00:32:24.851Z,11.50
2017-10-25T00:34:51.114Z,13.10
2017-10-25T00:37:17.416Z,12.97
2017-10-25T00:39:43.751Z,12.93
2017-10-25T00:42:10.058Z,15.17
2017-10-25T00:44:37.155Z,12.83
2017-10-25T00:47:04.175Z,13.03
2017-10-25T00:49:30.475Z,13.20
2017-10-25T00:51:56.815Z,13.90
2017-10-25T00:54:23.125Z,12.80
2017-10-25T00:56:49.423Z,13.67
2017-10-25T00:59:16.526Z,13.50
2017-10-25T01:01:42.835Z,12.23
2017-10-25T01:04:09.147Z,14.50
2017-10-25T01:06:35.474Z,13.13
2017-10-25T01:09:02.584Z,13.10
2017-10-25T01:11:28.891Z,12.10
2017-10-25T01:13:55.955Z,11.93
2017-10-25T01:16:23.754Z,14.10
2017-10-25T01:18:50.068Z,14.57
2017-10-25T01:21:16.406Z,14.20
2017-10-25T01:23:42.738Z,16.20
2017-10-25T01:26:10.270Z,14.27
2017-10-25T01:28:36.609Z,15.13
2017-10-25T01:31:02.930Z,16.23
2017-10-25T01:33:29.982Z,14.63
2017-10-25T01:35:57.074Z,15.23
2017-10-25T01:38:23.370Z,15.70
2017-10-25T01:40:49.687Z,14.63
2017-10-25T01:43:16.030Z,13.37
2017-10-25T01:45:43.074Z,12.63
2017-10-25T01:48:09.419Z,14.10
2017-10-25T01:50:35.758Z,15.70
2017-10-25T01:53:02.075Z,14.30
2017-10-25T01:55:28.350Z,14.30
2017-10-25T01:57:54.683Z,13.10
2017-10-25T02:00:21.759Z,14.47
2017-10-25T02:02:48.058Z,14.90
2017-10-25T02:05:14.381Z,15.37
2017-10-25T02:07:40.710Z,14.77
2017-10-25T02:10:07.735Z,14.10
2017-10-25T02:12:34.011Z,14.07
2017-10-25T02:15:00.402Z,12.87
2017-10-25T02:17:26.695Z,14.83
2017-10-25T02:19:53.050Z,12.63
2017-10-25T02:22:19.339Z,14.43
2017-10-25T02:24:45.623Z,12.80
2017-10-25T02:27:11.968Z,12.00
2017-10-25T02:29:38.259Z,12.30
2017-10-25T02:32:04.543Z,12.33
2017-10-25T02:34:31.614Z,12.57
2017-10-25T02:36:57.873Z,13.13
2017-10-25T02:39:24.150Z,12.10
2017-10-25T02:41:50.506Z,11.77
2017-10-25T02:44:17.526Z,11.80
2017-10-25T02:46:43.820Z,12.37
2017-10-25T02:49:10.145Z,11.67
2017-10-25T02:51:36.425Z,10.63
2017-10-25T02:54:03.450Z,12.27
2017-10-25T02:56:29.754Z,12.70
2017-10-25T02:58:56.808Z,12.40
2017-10-25T03:01:23.083Z,12.80
2017-10-25T03:03:49.371Z,13.70
2017-10-25T03:06:15.731Z,12.70
2017-10-25T03:08:42.055Z,12.73
2017-10-25T03:11:08.382Z,14.67
2017-10-25T03:13:34.662Z,12.13
2017-10-25T03:16:01.737Z,12.80
2017-10-25T03:18:28.078Z,13.07
2017-10-25T03:20:55.102Z,13.30
2017-10-25T03:23:21.394Z,14.77
2017-10-25T03:25:47.730Z,11.70
2017-10-25T03:28:14.134Z,12.67
2017-10-25T03:30:41.508Z,12.10
2017-10-25T03:33:07.841Z,14.50
2017-10-25T03:35:34.862Z,12.47
2017-10-25T03:38:01.163Z,12.47
2017-10-25T03:40:28.186Z,12.53
2017-10-25T03:42:54.446Z,12.97
2017-10-25T03:45:20.751Z,13.20
2017-10-25T03:47:47.067Z,13.30
2017-10-25T03:50:13.408Z,11.70
2017-10-25T03:52:39.684Z,12.83
2017-10-25T03:55:06.743Z,12.43
2017-10-25T03:57:33.042Z,13.27
2017-10-25T04:00:00.068Z,12.90
2017-10-25T04:02:26.355Z,12.70
2017-10-25T04:04:52.629Z,11.63
2017-10-25T04:07:18.931Z,12.30
2017-10-25T04:09:45.339Z,13.13
2017-10-25T04:12:11.662Z,12.70
2017-10-25T04:14:37.963Z,13.30
2017-10-25T04:17:04.253Z,13.60
2017-10-25T04:19:30.539Z,12.60
2017-10-25T04:21:57.582Z,12.10
2017-10-25T04:24:23.863Z,12.73
2017-10-25T04:26:50.878Z,11.80
2017-10-25T04:29:17.189Z,12.97
2017-10-25T04:31:43.539Z,11.33
2017-10-25T04:34:10.554Z,11.77
2017-10-25T04:36:36.846Z,13.70
2017-10-25T04:39:03.931Z,12.27
2017-10-25T04:41:30.208Z,12.17
2017-10-25T04:43:56.510Z,12.90
2017-10-25T04:46:22.780Z,13.50
2017-10-25T04:48:49.073Z,12.50
2017-10-25T04:51:15.383Z,12.33
2017-10-25T04:53:42.466Z,12.67
2017-10-25T04:56:08.771Z,11.77
2017-10-25T04:58:35.046Z,12.53
2017-10-25T05:01:01.382Z,11.90
2017-10-25T05:03:27.710Z,12.63
2017-10-25T05:05:54.027Z,12.33
2017-10-25T05:08:21.058Z,12.00
2017-10-25T05:10:47.670Z,13.37
2017-10-25T05:13:14.731Z,11.00
2017-10-25T05:15:42.654Z,12.10
2017-10-25T05:18:09.684Z,11.73
2017-10-25T05:20:35.963Z,12.60
2017-10-25T05:23:02.295Z,12.20
2017-10-25T05:25:28.572Z,12.93
2017-10-25T05:27:54.854Z,12.43
2017-10-25T05:30:21.183Z,12.70
2017-10-25T05:32:48.230Z,12.67
2017-10-25T05:35:14.568Z,13.17
2017-10-25T05:37:40.875Z,11.97
2017-10-25T05:40:07.231Z,12.70
2017-10-25T05:42:33.558Z,13.93
2017-10-25T05:45:00.635Z,13.10
2017-10-25T05:47:26.934Z,13.27
2017-10-25T05:49:53.238Z,13.43
2017-10-25T05:52:19.580Z,14.20
2017-10-25T05:54:45.979Z,13.67
2017-10-25T05:57:12.382Z,12.33
2017-10-25T05:59:38.707Z,12.90
2017-10-25T06:02:05.016Z,13.03
2017-10-25T06:04:32.108Z,13.30
2017-10-25T06:06:58.411Z,12.73
2017-10-25T06:09:24.682Z,12.97
2017-10-25T06:11:50.982Z,13.80
2017-10-25T06:14:17.347Z,13.93
2017-10-25T06:16:43.667Z,12.97
2017-10-25T06:19:10.751Z,13.53
2017-10-25T06:21:37.070Z,10.90
2017-10-25T06:24:03.383Z,12.90
2017-10-25T06:26:29.694Z,13.07
2017-10-25T06:28:55.994Z,11.83
2017-10-25T06:31:22.282Z,13.17
2017-10-25T06:33:48.578Z,13.33
2017-10-25T06:36:15.014Z,11.57
2017-10-25T06:38:41.348Z,11.53
2017-10-25T06:41:07.674Z,12.10
2017-10-25T06:43:34.722Z,11.97
2017-10-25T06:46:01.026Z,9.50
2017-10-25T06:48:28.075Z,11.07
2017-10-25T06:50:55.470Z,11.40
2017-10-25T06:53:21.770Z,12.87
2017-10-25T06:55:48.806Z,13.53
2017-10-25T06:58:15.878Z,11.27
2017-10-25T07:00:42.206Z,11.50
2017-10-25T07:03:08.494Z,11.70
2017-10-25T07:05:34.798Z,13.47
2017-10-25T07:08:01.091Z,14.50
2017-10-25T07:10:27.394Z,13.47
2017-10-25T07:12:53.657Z,13.57
2017-10-25T07:15:19.960Z,11.40
2017-10-25T07:17:46.232Z,12.50
2017-10-25T07:20:12.586Z,11.50
2017-10-25T07:22:38.890Z,12.00
2017-10-25T07:25:05.159Z,11.63
2017-10-25T07:27:31.447Z,12.83
2017-10-25T07:29:57.751Z,13.23
2017-10-25T07:32:24.018Z,11.80
2017-10-25T07:34:50.294Z,11.73
2017-10-25T07:37:18.679Z,10.80
2017-10-25T07:39:46.022Z,11.43
2017-10-25T07:42:12.359Z,11.57
2017-10-25T07:44:39.358Z,13.40
2017-10-25T07:47:05.656Z,12.97
2017-10-25T07:49:32.702Z,13.37
2017-10-25T07:51:58.976Z,11.90
2017-10-25T07:54:25.261Z,12.50
2017-10-25T07:56:51.570Z,10.87
2017-10-25T07:59:17.870Z,11.40
2017-10-25T08:01:44.898Z,12.60
2017-10-25T08:04:11.211Z,11.03
2017-10-25T08:06:38.470Z,11.90
2017-10-25T08:09:04.808Z,15.57
2017-10-25T08:11:31.148Z,16.03
2017-10-25T08:13:57.431Z,17.70
2017-10-25T08:16:23.694Z,15.93
2017-10-25T08:18:49.998Z,15.07
2017-10-25T08:21:16.298Z,16.00
2017-10-25T08:23:43.315Z,15.33
2017-10-25T08:26:09.607Z,12.30
2017-10-25T08:28:35.919Z,12.10
2017-10-25T08:31:02.186Z,13.20
2017-10-25T08:33:28.474Z,12.70
2017-10-25T08:35:54.770Z,12.10
2017-10-25T08:38:21.034Z,13.10
2017-10-25T08:40:47.354Z,12.53
2017-10-25T08:43:13.637Z,13.47
2017-10-25T08:45:39.946Z,12.40
2017-10-25T08:48:06.258Z,12.80
2017-10-25T08:50:32.509Z,12.30
2017-10-25T08:52:58.810Z,10.87
2017-10-25T08:55:25.118Z,11.17
2017-10-25T08:57:51.424Z,11.33
2017-10-25T09:00:18.483Z,9.40
2017-10-25T09:02:44.855Z,9.97
2017-10-25T09:05:11.164Z,10.50
2017-10-25T09:07:37.466Z,8.77
2017-10-25T09:10:03.799Z,8.60
2017-10-25T09:12:30.067Z,8.43
2017-10-25T09:14:57.192Z,8.00
2017-10-25T09:17:23.588Z,8.10
2017-10-25T09:19:50.637Z,7.30
2017-10-25T09:22:16.974Z,6.63
2017-10-25T09:24:44.783Z,6.80
2017-10-25T09:27:11.818Z,7.03
2017-10-25T09:29:38.927Z,5.60
2017-10-25T09:32:05.970Z,6.63
2017-10-25T09:34:32.247Z,6.30
2017-10-25T09:36:58.501Z,3.60
2017-10-25T09:39:24.818Z,3.03
2017-10-25T09:41:51.074Z,3.50
2017-10-25T09:44:17.361Z,3.00
2017-10-25T09:46:44.443Z,2.63
2017-10-25T09:49:10.702Z,2.57
2017-10-25T09:51:36.991Z,5.40
2017-10-25T09:54:03.288Z,2.57
2017-10-25T09:56:29.586Z,2.73
2017-10-25T09:58:55.866Z,2.67
2017-10-25T10:01:22.190Z,2.53
2017-10-25T10:03:49.190Z,3.00
2017-10-25T10:06:15.544Z,2.53
2017-10-25T10:08:41.831Z,2.60
2017-10-25T10:11:08.098Z,2.43
2017-10-25T10:13:35.150Z,2.20
2017-10-25T10:16:01.483Z,2.80
2017-10-25T10:18:27.766Z,2.60
2017-10-25T10:20:54.058Z,3.60
2017-10-25T10:23:20.351Z,2.90
2017-10-25T10:25:46.650Z,3.30
2017-10-25T10:28:12.967Z,3.53
2017-10-25T10:30:39.290Z,3.10
2017-10-25T10:33:05.589Z,2.90
2017-10-25T10:35:31.903Z,2.63
2017-10-25T10:37:58.216Z,3.40
2017-10-25T10:40:24.530Z,3.07
2017-10-25T10:42:50.807Z,4.10
2017-10-25T10:45:17.122Z,3.43
2017-10-25T10:47:43.427Z,3.20
2017-10-25T10:50:09.768Z,2.80
2017-10-25T10:52:36.817Z,3.00
2017-10-25T10:55:03.110Z,2.83
2017-10-25T10:57:29.381Z,2.47
2017-10-25T10:59:55.702Z,3.57
2017-10-25T11:02:22.010Z,3.43
2017-10-25T11:04:48.308Z,3.23
2017-10-25T11:07:14.779Z,2.57
2017-10-25T11:09:41.080Z,2.50
2017-10-25T11:12:07.400Z,3.63
2017-10-25T11:14:33.724Z,2.77
2017-10-25T11:17:00.014Z,2.73
2017-10-25T11:19:27.064Z,2.30
2017-10-25T11:21:54.109Z,2.90
2017-10-25T11:24:20.406Z,3.30
2017-10-25T11:26:47.657Z,2.20
2017-10-25T11:29:13.966Z,2.70
2017-10-25T11:31:40.262Z,2.40
2017-10-25T11:34:06.559Z,1.60
2017-10-25T11:36:32.883Z,1.17
2017-10-25T11:38:59.171Z,1.43
2017-10-25T11:41:25.459Z,1.20
2017-10-25T11:43:51.779Z,1.30
2017-10-25T11:46:18.779Z,1.03
2017-10-25T11:48:45.058Z,1.00
2017-10-25T11:51:12.144Z,1.17
2017-10-25T11:53:39.184Z,1.10
2017-10-25T11:56:05.474Z,1.40
2017-10-25T11:58:32.520Z,0.93
2017-10-25T12:00:58.782Z,0.80
2017-10-25T12:03:25.069Z,0.93
2017-10-25T12:05:51.398Z,0.97
2017-10-25T12:08:17.739Z,0.80
2017-10-25T12:10:44.131Z,0.70
2017-10-25T12:13:10.434Z,0.77
2017-10-25T12:15:36.714Z,1.07
2017-10-25T12:18:02.998Z,0.90
2017-10-25T12:20:29.275Z,1.00
2017-10-25T12:22:55.563Z,0.80
2017-10-25T12:25:21.819Z,1.23
2017-10-25T12:27:48.110Z,1.13
2017-10-25T12:30:16.110Z,1.17
2017-10-25T12:32:43.139Z,0.80
2017-10-25T12:35:10.174Z,1.20
2017-10-25T12:37:36.439Z,0.90
2017-10-25T12:40:02.755Z,0.70
2017-10-25T12:42:31.859Z,0.87
2017-10-25T12:44:59.167Z,0.97
2017-10-25T12:47:25.418Z,0.97
2017-10-25T12:49:51.714Z,0.87
2017-10-25T12:52:18.018Z,0.87
2017-10-25T12:54:44.295Z,0.90
2017-10-25T12:57:10.622Z,1.07
2017-10-25T12:59:39.750Z,1.17
2017-10-25T13:02:06.098Z,1.20
2017-10-25T13:04:32.394Z,0.73
2017-10-25T13:06:58.671Z,1.17
2017-10-25T13:09:24.926Z,0.70
2017-10-25T13:12:10.298Z,0.93
2017-10-25T13:14:59.226Z,1.07
2017-10-25T13:17:42.625Z,0.70
2017-10-25T13:20:08.906Z,1.20
2017-10-25T13:22:35.211Z,0.87
2017-10-25T13:25:02.231Z,0.70
2017-10-25T13:27:28.506Z,0.70
2017-10-25T13:29:54.822Z,0.77
2017-10-25T13:32:22.167Z,0.90
2017-10-25T13:34:49.186Z,0.70
2017-10-25T13:37:16.483Z,1.10
2017-10-25T13:39:42.782Z,1.30
2017-10-25T13:42:09.799Z,0.80
2017-10-25T13:44:36.079Z,0.90
2017-10-25T13:47:02.382Z,0.80
2017-10-25T13:49:28.679Z,1.23
2017-10-25T13:51:55.726Z,1.20
2017-10-25T13:54:22.015Z,0.97
2017-10-25T13:56:48.288Z,1.20
2017-10-25T13:59:14.636Z,0.80
2017-10-25T14:01:42.734Z,1.83
2017-10-25T14:04:09.775Z,1.20
2017-10-25T14:06:36.838Z,1.40
2017-10-25T14:09:03.188Z,1.20
2017-10-25T14:11:29.455Z,1.17
2017-10-25T14:13:56.502Z,3.80
2017-10-25T14:16:22.837Z,1.30
2017-10-25T14:18:49.123Z,1.13
2017-10-25T14:21:15.418Z,1.97
2017-10-25T14:23:42.449Z,1.50
2017-10-25T14:26:08.757Z,1.50
2017-10-25T14:28:45.361Z,1.20
2017-10-25T14:31:11.649Z,1.40
2017-10-25T14:33:37.923Z,1.07
2017-10-25T14:36:04.228Z,1.20
2017-10-25T14:38:30.498Z,1.37
2017-10-25T14:40:56.802Z,1.83
2017-10-25T14:43:23.847Z,1.53
2017-10-25T14:45:50.099Z,1.40
2017-10-25T14:48:17.106Z,1.27
2017-10-25T14:50:43.398Z,1.77
2017-10-25T14:53:09.682Z,1.40
2017-10-25T14:55:36.718Z,2.17
2017-10-25T14:58:02.996Z,1.53
2017-10-25T15:00:29.306Z,1.87
2017-10-25T15:02:55.650Z,1.47
2017-10-25T15:05:21.957Z,1.53
2017-10-25T15:07:48.222Z,1.40
2017-10-25T15:10:15.263Z,1.57
2017-10-25T15:12:41.551Z,1.60
2017-10-25T15:15:07.832Z,1.50
2017-10-25T15:17:34.154Z,1.50
2017-10-25T15:20:00.519Z,1.40
2017-10-25T15:22:26.899Z,1.80
2017-10-25T15:24:53.250Z,2.20
2017-10-25T15:27:19.540Z,2.10
2017-10-25T15:29:45.835Z,1.60
2017-10-25T15:32:12.154Z,1.70
2017-10-25T15:34:39.527Z,1.57
2017-10-25T15:37:06.542Z,1.83
2017-10-25T15:39:32.826Z,1.50
2017-10-25T15:41:59.146Z,1.87
2017-10-25T15:44:25.635Z,1.30
2017-10-25T15:46:52.239Z,1.30
2017-10-25T15:49:18.555Z,1.87
2017-10-25T15:51:44.901Z,1.67
2017-10-25T15:54:11.290Z,1.40
2017-10-25T15:56:38.275Z,1.60
2017-10-25T15:59:04.573Z,1.73
2017-10-25T16:01:30.898Z,1.53
2017-10-25T16:03:57.333Z,1.43
2017-10-25T16:06:23.877Z,1.90
2017-10-25T16:08:50.226Z,2.00
2017-10-25T16:11:16.523Z,2.13
2017-10-25T16:13:42.939Z,2.00
2017-10-25T16:16:09.476Z,1.87
2017-10-25T16:18:36.548Z,2.30
2017-10-25T16:21:03.599Z,1.60
2017-10-25T16:23:29.966Z,2.57
2017-10-25T16:25:56.462Z,2.37
2017-10-25T16:28:23.766Z,2.20
2017-10-25T16:30:51.044Z,2.73
2017-10-25T16:33:17.439Z,3.27
2017-10-25T16:35:45.244Z,5.33
2017-10-25T16:38:12.857Z,4.20
2017-10-25T16:40:39.965Z,4.63
2017-10-25T16:43:07.998Z,4.47
2017-10-25T16:45:35.275Z,6.00
2017-10-25T16:48:01.703Z,5.03
2017-10-25T16:50:28.656Z,5.33
2017-10-25T16:52:55.884Z,4.40
2017-10-25T16:55:22.720Z,2.90
2017-10-25T16:57:49.922Z,2.70
2017-10-25T17:00:18.880Z,3.23
2017-10-25T17:02:48.310Z,2.70
2017-10-25T17:05:17.416Z,2.10
2017-10-25T17:07:46.171Z,2.50
2017-10-25T17:10:15.376Z,2.33
2017-10-25T17:12:44.202Z,2.87
2017-10-25T17:15:13.213Z,2.00
2017-10-25T17:17:42.249Z,1.97
2017-10-25T17:20:11.914Z,2.43
2017-10-25T17:22:41.515Z,2.10
2017-10-25T17:25:11.163Z,2.40
2017-10-25T17:27:40.665Z,2.90
2017-10-25T17:30:09.887Z,2.83
2017-10-25T17:32:39.675Z,3.77
2017-10-25T17:35:08.658Z,4.30
2017-10-25T17:37:37.868Z,4.93
2017-10-25T17:40:07.102Z,5.90
2017-10-25T17:42:35.862Z,6.20
2017-10-25T17:45:05.115Z,5.93
2017-10-25T17:47:36.758Z,5.97
2017-10-25T17:50:05.473Z,6.27
2017-10-25T17:52:34.557Z,5.90
2017-10-25T17:55:03.455Z,5.90
2017-10-25T17:57:33.603Z,6.13
2017-10-25T18:00:02.368Z,5.33
2017-10-25T18:02:31.176Z,5.80
2017-10-25T18:05:00.443Z,5.93
2017-10-25T18:07:29.340Z,5.73
2017-10-25T18:09:58.269Z,5.97
2017-10-25T18:12:28.388Z,5.33
2017-10-25T18:14:57.238Z,4.70
2017-10-25T18:17:26.166Z,5.80
2017-10-25T18:19:58.062Z,4.70
2017-10-25T18:22:29.152Z,4.90
2017-10-25T18:24:58.569Z,4.90
2017-10-25T18:27:28.285Z,5.60
2017-10-25T18:29:56.798Z,4.93
2017-10-25T18:32:26.643Z,3.80
2017-10-25T18:34:56.065Z,3.70
2017-10-25T18:37:24.866Z,3.43
2017-10-25T18:39:52.879Z,3.03
2017-10-25T18:42:21.857Z,2.93
2017-10-25T18:44:50.904Z,3.90
2017-10-25T18:47:18.833Z,3.27
2017-10-25T18:49:47.921Z,3.30
2017-10-25T18:52:18.337Z,2.67
2017-10-25T18:54:47.849Z,2.90
2017-10-25T18:57:17.090Z,3.60
2017-10-25T18:59:49.711Z,2.63
2017-10-25T19:02:20.592Z,3.30
2017-10-25T19:04:49.372Z,2.63
2017-10-25T19:07:18.128Z,3.20
2017-10-25T19:09:48.014Z,3.40
2017-10-25T19:12:17.068Z,3.17
2017-10-25T19:14:46.183Z,3.17
2017-10-25T19:17:15.880Z,3.10
2017-10-25T19:19:46.489Z,3.70
2017-10-25T19:22:15.952Z,4.13
2017-10-25T19:24:43.912Z,3.77
2017-10-25T19:27:13.327Z,4.03
2017-10-25T19:29:42.471Z,3.80
2017-10-25T19:32:12.153Z,3.70
2017-10-25T19:34:41.881Z,2.87
2017-10-25T19:37:10.807Z,3.90
2017-10-25T19:39:39.628Z,3.97
2017-10-25T19:42:08.642Z,3.37
2017-10-25T19:44:37.987Z,3.90
2017-10-25T19:47:06.679Z,3.47
2017-10-25T19:49:35.722Z,4.00
2017-10-25T19:52:04.872Z,4.17
2017-10-25T19:54:33.623Z,3.80
2017-10-25T19:57:02.622Z,3.10
2017-10-25T19:59:32.361Z,4.23
2017-10-25T20:02:00.301Z,3.60
2017-10-25T20:04:28.229Z,4.30
2017-10-25T20:06:56.198Z,4.57
2017-10-25T20:09:24.091Z,4.50
2017-10-25T20:11:52.869Z,4.47
2017-10-25T20:14:20.745Z,4.00
2017-10-25T20:16:48.773Z,5.40
2017-10-25T20:19:16.734Z,5.27
2017-10-25T20:21:44.664Z,4.63
2017-10-25T20:24:12.961Z,3.70
2017-10-25T20:26:40.837Z,4.20
2017-10-25T20:29:08.608Z,4.70
2017-10-25T20:31:36.538Z,4.50
2017-10-25T20:34:05.422Z,4.77
2017-10-25T20:36:33.295Z,4.40
2017-10-25T20:39:02.114Z,4.70
2017-10-25T20:41:30.046Z,4.70
2017-10-25T20:43:58.154Z,4.17
2017-10-25T20:46:26.016Z,4.10
2017-10-25T20:48:53.961Z,4.23
2017-10-25T20:51:21.952Z,4.87
2017-10-25T20:53:49.885Z,4.83
2017-10-25T20:56:18.413Z,4.93
2017-10-25T20:58:47.761Z,4.60
2017-10-25T21:01:16.754Z,5.00
2017-10-25T21:03:45.547Z,5.10
2017-10-25T21:06:14.502Z,4.47
2017-10-25T21:08:43.504Z,5.03
2017-10-25T21:11:13.632Z,4.30
2017-10-25T21:13:42.871Z,4.93
2017-10-25T21:16:11.615Z,4.60
2017-10-25T21:18:40.517Z,3.83
2017-10-25T21:21:08.244Z,4.90
2017-10-25T21:23:35.957Z,4.03
2017-10-25T21:26:03.750Z,4.13
2017-10-25T21:28:30.344Z,4.00
2017-10-25T21:30:56.848Z,3.80
2017-10-25T21:33:23.640Z,4.23
2017-10-25T21:35:50.158Z,5.60
2017-10-25T21:38:16.648Z,4.17
2017-10-25T21:40:42.935Z,4.23
2017-10-25T21:43:10.023Z,3.37
2017-10-25T21:45:36.292Z,4.47
2017-10-25T21:48:02.582Z,4.17
2017-10-25T21:50:28.926Z,4.17
2017-10-25T21:52:56.804Z,5.00
2017-10-25T21:55:23.738Z,4.17
2017-10-25T21:57:50.071Z,4.33
2017-10-25T22:00:16.343Z,4.30
2017-10-25T22:02:42.650Z,4.23
2017-10-25T22:05:10.627Z,4.43
2017-10-25T22:07:36.871Z,4.23
2017-10-25T22:10:03.937Z,5.40
2017-10-25T22:12:30.235Z,4.40
2017-10-25T22:14:57.226Z,3.57
2017-10-25T22:17:24.327Z,4.73
2017-10-25T22:19:51.491Z,4.87
2017-10-25T22:22:17.742Z,4.60
2017-10-25T22:24:44.106Z,4.33
2017-10-25T22:27:11.170Z,4.20
2017-10-25T22:29:37.444Z,4.63
2017-10-25T22:32:03.727Z,4.80
2017-10-25T22:34:30.075Z,4.50
2017-10-25T22:36:57.186Z,4.57
2017-10-25T22:39:23.499Z,4.37
2017-10-25T22:41:50.530Z,4.80
2017-10-25T22:44:16.810Z,5.57
2017-10-25T22:46:43.070Z,4.87
2017-10-25T22:49:09.403Z,6.20
2017-10-25T22:51:35.765Z,5.93
2017-10-25T22:54:02.094Z,4.28
2017-10-25T22:56:28.339Z,4.97
2017-10-25T22:58:54.654Z,4.60
2017-10-25T23:01:21.678Z,4.97
2017-10-25T23:03:47.926Z,4.40
2017-10-25T23:06:14.222Z,3.83
2017-10-25T23:08:40.544Z,4.47
2017-10-25T23:11:06.822Z,4.27
2017-10-25T23:13:33.910Z,3.80
2017-10-25T23:16:00.921Z,3.50
2017-10-25T23:18:27.199Z,3.15
2017-10-25T23:20:53.470Z,4.23
2017-10-25T23:23:20.762Z,3.60
2017-10-25T23:25:48.842Z,4.97
2017-10-25T23:28:15.874Z,3.93
2017-10-25T23:30:42.126Z,3.60
2017-10-25T23:33:08.430Z,3.75
2017-10-25T23:35:35.489Z,3.97
2017-10-25T23:38:01.791Z,3.78
2017-10-25T23:40:28.035Z,3.90
2017-10-25T23:42:54.355Z,3.75
2017-10-25T23:45:20.620Z,3.73
2017-10-25T23:47:47.642Z,3.80
2017-10-25T23:50:13.924Z,3.80
2017-10-25T23:52:40.246Z,4.70
2017-10-25T23:55:06.574Z,4.15
2017-10-25T23:57:35.634Z,3.83
